createdAt,value
2022-08-14T00:01:15.445Z,23.13
2022-08-14T00:03:55.892Z,23.18
2022-08-14T00:06:29.271Z,23.20
2022-08-14T00:09:01.935Z,23.19
2022-08-14T00:11:34.266Z,23.16
2022-08-14T00:14:06.858Z,23.01
2022-08-14T00:16:40.975Z,22.95
2022-08-14T00:19:19.325Z,23.03
2022-08-14T00:21:53.356Z,23.04
2022-08-14T00:24:28.873Z,23.00
2022-08-14T00:27:04.431Z,23.08
2022-08-14T00:29:40.341Z,23.13
2022-08-14T00:32:51.947Z,23.15
2022-08-14T00:35:07.229Z,23.19
2022-08-14T00:37:47.004Z,23.17
2022-08-14T00:40:33.334Z,23.18
2022-08-14T00:43:08.015Z,23.09
2022-08-14T00:45:41.100Z,23.02
2022-08-14T00:48:14.355Z,22.85
2022-08-14T00:51:07.680Z,22.79
2022-08-14T00:53:42.924Z,22.56
2022-08-14T00:56:15.862Z,22.59
2022-08-14T00:58:48.712Z,22.68
2022-08-14T01:01:21.067Z,22.72
2022-08-14T01:03:56.280Z,22.70
2022-08-14T01:06:30.087Z,22.68
2022-08-14T01:09:07.983Z,22.65
2022-08-14T01:11:45.204Z,22.48
2022-08-14T01:14:35.752Z,22.52
2022-08-14T01:17:08.993Z,22.58
2022-08-14T01:19:59.383Z,22.56
2022-08-14T01:22:31.814Z,22.47
2022-08-14T01:25:02.496Z,22.33
2022-08-14T01:27:45.190Z,22.20
2022-08-14T01:30:28.582Z,22.26
2022-08-14T01:33:02.411Z,22.06
2022-08-14T01:36:05.075Z,21.85
2022-08-14T01:38:28.281Z,21.97
2022-08-14T01:41:01.875Z,22.13
2022-08-14T01:43:56.408Z,22.13
2022-08-14T01:46:33.474Z,22.27
2022-08-14T01:49:11.390Z,22.22
2022-08-14T01:51:46.192Z,22.11
2022-08-14T01:54:22.161Z,22.06
2022-08-14T01:56:56.990Z,21.92
2022-08-14T01:59:38.004Z,21.94
2022-08-14T02:02:19.008Z,22.13
2022-08-14T02:04:56.882Z,22.17
2022-08-14T02:07:44.830Z,22.19
2022-08-14T02:10:29.156Z,21.99
2022-08-14T02:13:08.557Z,21.81
2022-08-14T02:15:43.869Z,21.98
2022-08-14T02:18:15.840Z,22.02
2022-08-14T02:20:48.754Z,22.05
2022-08-14T02:23:28.841Z,21.81
2022-08-14T02:26:29.154Z,21.65
2022-08-14T02:29:04.206Z,21.46
2022-08-14T02:31:44.169Z,21.52
2022-08-14T02:34:26.127Z,21.50
2022-08-14T02:37:06.649Z,21.28
2022-08-14T02:39:42.407Z,21.28
2022-08-14T02:42:16.864Z,21.37
2022-08-14T02:44:55.659Z,21.48
2022-08-14T02:47:28.371Z,21.53
2022-08-14T02:50:01.118Z,21.38
2022-08-14T02:52:57.656Z,21.44
2022-08-14T02:55:27.782Z,21.25
2022-08-14T02:58:03.533Z,21.40
2022-08-14T03:00:40.086Z,21.40
2022-08-14T03:03:12.879Z,21.52
2022-08-14T03:05:45.112Z,21.29
2022-08-14T03:08:18.951Z,21.12
2022-08-14T03:10:51.632Z,21.12
2022-08-14T03:13:24.257Z,21.25
2022-08-14T03:15:58.409Z,21.40
2022-08-14T03:18:32.816Z,21.44
2022-08-14T03:21:07.843Z,21.12
2022-08-14T03:23:40.440Z,21.21
2022-08-14T03:26:18.320Z,21.07
2022-08-14T03:28:52.643Z,21.24
2022-08-14T03:31:26.107Z,21.07
2022-08-14T03:34:00.640Z,20.81
2022-08-14T03:37:38.050Z,20.76
2022-08-14T03:39:24.481Z,20.67
2022-08-14T03:42:01.901Z,20.80
2022-08-14T03:45:26.684Z,20.60
2022-08-14T03:47:46.095Z,20.72
2022-08-14T03:50:20.814Z,20.49
2022-08-14T03:53:00.463Z,20.54
2022-08-14T03:55:33.231Z,20.57
2022-08-14T03:58:06.806Z,20.63
2022-08-14T04:00:44.792Z,20.63
2022-08-14T04:03:24.108Z,20.62
2022-08-14T04:05:56.829Z,20.83
2022-08-14T04:08:31.747Z,20.92
2022-08-14T04:11:08.056Z,20.84
2022-08-14T04:13:44.733Z,20.78
2022-08-14T04:16:20.666Z,20.73
2022-08-14T04:18:55.983Z,20.65
2022-08-14T04:21:29.559Z,20.61
2022-08-14T04:24:13.986Z,20.58
2022-08-14T04:26:50.252Z,20.58
2022-08-14T04:29:22.282Z,20.28
2022-08-14T04:32:58.174Z,20.38
2022-08-14T04:34:52.244Z,20.41
2022-08-14T04:37:45.225Z,20.66
2022-08-14T04:40:35.441Z,20.68
2022-08-14T04:43:38.337Z,20.68
2022-08-14T04:46:56.913Z,20.67
2022-08-14T04:49:07.956Z,20.77
2022-08-14T04:51:55.503Z,20.60
2022-08-14T04:54:29.190Z,20.76
2022-08-14T04:57:01.187Z,21.00
2022-08-14T04:59:35.397Z,21.03
2022-08-14T05:02:08.239Z,21.13
2022-08-14T05:04:45.021Z,21.17
2022-08-14T05:07:17.614Z,21.18
2022-08-14T05:09:49.938Z,21.15
2022-08-14T05:13:10.683Z,21.06
2022-08-14T05:15:15.494Z,21.12
2022-08-14T05:17:53.982Z,21.25
2022-08-14T05:21:55.938Z,21.23
2022-08-14T05:23:29.398Z,21.35
2022-08-14T05:26:05.745Z,21.47
2022-08-14T05:28:38.393Z,21.66
2022-08-14T05:31:10.198Z,21.72
2022-08-14T05:33:44.555Z,21.79
2022-08-14T05:36:30.271Z,21.93
2022-08-14T05:39:03.058Z,21.93
2022-08-14T05:41:48.531Z,21.72
2022-08-14T05:44:29.939Z,21.33
2022-08-14T05:47:03.010Z,21.34
2022-08-14T05:49:35.922Z,21.46
2022-08-14T05:52:10.492Z,21.55
2022-08-14T05:54:47.867Z,21.71
2022-08-14T05:57:19.911Z,21.72
2022-08-14T05:59:51.887Z,21.67
2022-08-14T06:02:25.177Z,21.84
2022-08-14T06:04:58.856Z,21.58
2022-08-14T06:07:31.013Z,21.52
2022-08-14T06:10:04.156Z,21.62
2022-08-14T06:12:55.612Z,21.89
2022-08-14T06:15:30.378Z,22.12
2022-08-14T06:18:02.977Z,22.16
2022-08-14T06:20:35.464Z,22.01
2022-08-14T06:23:08.095Z,21.81
2022-08-14T06:25:41.339Z,21.84
2022-08-14T06:28:27.016Z,21.84
2022-08-14T06:30:59.629Z,21.96
2022-08-14T06:35:01.383Z,22.15
2022-08-14T06:36:24.036Z,22.00
2022-08-14T06:38:56.818Z,22.01
2022-08-14T06:41:56.893Z,22.09
2022-08-14T06:44:21.615Z,22.23
2022-08-14T06:47:04.475Z,22.23
2022-08-14T06:49:45.127Z,22.28
2022-08-14T06:52:23.101Z,22.37
2022-08-14T06:54:57.126Z,22.61
2022-08-14T06:57:38.906Z,22.70
2022-08-14T07:00:27.301Z,22.73
2022-08-14T07:03:21.967Z,22.83
2022-08-14T07:05:55.301Z,22.94
2022-08-14T07:08:31.539Z,23.03
2022-08-14T07:11:04.573Z,22.92
2022-08-14T07:13:37.220Z,23.16
2022-08-14T07:16:13.614Z,23.05
2022-08-14T07:18:46.190Z,22.95
2022-08-14T07:21:22.977Z,23.09
2022-08-14T07:23:55.592Z,23.02
2022-08-14T07:26:31.551Z,23.11
2022-08-14T07:29:01.909Z,23.30
2022-08-14T07:31:34.559Z,23.11
2022-08-14T07:34:08.389Z,23.17
2022-08-14T07:36:53.657Z,23.29
2022-08-14T07:39:34.569Z,23.34
2022-08-14T07:42:09.123Z,23.44
2022-08-14T07:44:46.263Z,23.57
2022-08-14T07:47:22.862Z,23.81
2022-08-14T07:49:55.779Z,24.01
2022-08-14T07:52:30.693Z,24.09
2022-08-14T07:55:04.939Z,24.17
2022-08-14T07:57:38.376Z,24.15
2022-08-14T08:00:31.079Z,24.18
2022-08-14T08:03:04.689Z,24.08
2022-08-14T08:05:41.180Z,24.31
2022-08-14T08:08:26.911Z,24.41
2022-08-14T08:11:08.444Z,24.70
2022-08-14T08:13:54.405Z,24.88
2022-08-14T08:16:51.137Z,24.89
2022-08-14T08:19:25.527Z,24.95
2022-08-14T08:21:58.941Z,25.02
2022-08-14T08:24:37.283Z,25.14
2022-08-14T08:27:21.317Z,25.21
2022-08-14T08:30:03.746Z,25.20
2022-08-14T08:32:45.958Z,25.26
2022-08-14T08:35:24.028Z,25.33
2022-08-14T08:38:03.076Z,25.21
2022-08-14T08:41:01.230Z,25.24
2022-08-14T08:43:36.549Z,25.30
2022-08-14T08:46:21.263Z,25.36
2022-08-14T08:51:34.323Z,25.56
2022-08-14T08:54:11.937Z,25.65
2022-08-14T08:56:52.838Z,25.74
2022-08-14T08:59:31.250Z,25.81
2022-08-14T09:02:11.516Z,25.85
2022-08-14T09:04:53.670Z,25.90
2022-08-14T09:07:31.159Z,25.96
2022-08-14T09:10:08.100Z,25.96
2022-08-14T09:12:46.795Z,25.99
2022-08-14T09:15:26.051Z,26.09
2022-08-14T09:18:42.177Z,26.29
2022-08-14T09:21:48.014Z,26.40
2022-08-14T09:24:44.034Z,26.53
2022-08-14T09:27:22.722Z,26.55
2022-08-14T09:30:33.148Z,26.60
2022-08-14T09:33:32.068Z,26.78
2022-08-14T09:36:36.217Z,26.84
2022-08-14T09:39:23.101Z,26.92
2022-08-14T09:42:20.153Z,26.98
2022-08-14T09:45:22.946Z,26.99
2022-08-14T09:47:58.988Z,27.10
2022-08-14T09:50:45.974Z,27.29
2022-08-14T09:54:18.532Z,27.34
2022-08-14T09:56:30.984Z,27.47
2022-08-14T09:59:16.733Z,27.51
2022-08-14T10:01:52.714Z,27.55
2022-08-14T10:04:33.846Z,27.67
2022-08-14T10:07:12.664Z,27.68
2022-08-14T10:10:00.297Z,27.73
2022-08-14T10:12:52.888Z,27.74
2022-08-14T10:15:29.827Z,27.71
2022-08-14T10:18:17.507Z,27.78
2022-08-14T10:20:58.760Z,27.89
2022-08-14T10:23:44.515Z,27.94
2022-08-14T10:26:23.136Z,28.03
2022-08-14T10:29:19.985Z,28.05
2022-08-14T10:32:03.101Z,27.97
2022-08-14T10:35:05.291Z,28.00
2022-08-14T10:37:52.410Z,28.10
2022-08-14T10:40:38.011Z,28.21
2022-08-14T10:43:25.522Z,28.28
2022-08-14T10:46:04.130Z,28.27
2022-08-14T10:49:05.409Z,28.27
2022-08-14T10:51:41.620Z,28.17
2022-08-14T10:54:26.106Z,28.14
2022-08-14T10:57:20.001Z,28.09
2022-08-14T10:59:56.189Z,27.97
2022-08-14T11:02:44.499Z,28.02
2022-08-14T11:05:26.472Z,27.97
2022-08-14T11:08:08.950Z,28.23
2022-08-14T11:10:48.376Z,28.46
2022-08-14T11:13:23.830Z,28.57
2022-08-14T11:16:00.546Z,28.73
2022-08-14T11:18:40.136Z,28.65
2022-08-14T11:21:21.309Z,28.52
2022-08-14T11:23:57.155Z,28.39
2022-08-14T11:26:31.542Z,28.37
2022-08-14T11:29:08.720Z,28.45
2022-08-14T11:31:41.579Z,28.79
2022-08-14T11:34:31.904Z,29.02
2022-08-14T11:37:18.674Z,29.19
2022-08-14T11:39:56.008Z,29.70
2022-08-14T11:42:57.958Z,29.82
2022-08-14T11:45:25.978Z,29.66
2022-08-14T11:48:13.015Z,29.69
2022-08-14T11:50:56.153Z,29.73
2022-08-14T11:53:31.304Z,29.52
2022-08-14T11:56:06.348Z,29.43
2022-08-14T11:58:40.220Z,29.53
2022-08-14T12:01:15.869Z,29.84
2022-08-14T12:03:52.105Z,29.88
2022-08-14T12:06:39.334Z,29.66
2022-08-14T12:09:14.945Z,29.65
2022-08-14T12:11:51.495Z,30.05
2022-08-14T12:14:31.009Z,29.90
2022-08-14T12:17:13.314Z,29.94
2022-08-14T12:19:56.502Z,29.91
2022-08-14T12:22:42.310Z,29.66
2022-08-14T12:25:25.164Z,29.44
2022-08-14T12:28:01.945Z,29.22
2022-08-14T12:30:39.498Z,29.18
2022-08-14T12:33:32.941Z,29.17
2022-08-14T12:36:09.941Z,28.83
2022-08-14T12:38:45.692Z,28.69
2022-08-14T12:41:21.935Z,28.76
2022-08-14T12:43:59.501Z,28.55
2022-08-14T12:46:39.764Z,28.53
2022-08-14T12:49:16.476Z,28.40
2022-08-14T12:51:59.804Z,28.24
2022-08-14T12:54:32.690Z,28.17
2022-08-14T12:57:13.586Z,28.13
2022-08-14T12:59:52.769Z,28.20
2022-08-14T13:02:29.816Z,28.28
2022-08-14T13:05:02.050Z,28.32
2022-08-14T13:07:35.471Z,28.42
2022-08-14T13:10:51.128Z,28.66
2022-08-14T13:13:15.623Z,29.09
2022-08-14T13:15:57.176Z,29.16
2022-08-14T13:18:32.252Z,29.45
2022-08-14T13:21:06.016Z,29.43
2022-08-14T13:23:38.798Z,29.22
2022-08-14T13:26:13.043Z,28.95
2022-08-14T13:29:02.754Z,28.70
2022-08-14T13:31:37.019Z,28.59
2022-08-14T13:34:10.719Z,28.62
2022-08-14T13:36:54.886Z,28.81
2022-08-14T13:39:36.446Z,28.92
2022-08-14T13:42:14.872Z,29.05
2022-08-14T13:44:50.345Z,28.93
2022-08-14T13:47:24.953Z,29.13
2022-08-14T13:50:02.932Z,28.91
2022-08-14T13:52:51.957Z,28.63
2022-08-14T13:55:29.551Z,28.64
2022-08-14T13:58:05.228Z,28.58
2022-08-14T14:00:52.787Z,28.49
2022-08-14T14:03:31.820Z,28.30
2022-08-14T14:06:05.529Z,27.99
2022-08-14T14:08:45.775Z,27.97
2022-08-14T14:11:23.941Z,27.96
2022-08-14T14:13:57.488Z,28.05
2022-08-14T14:16:30.895Z,28.12
2022-08-14T14:19:09.837Z,28.35
2022-08-14T14:21:42.210Z,28.73
2022-08-14T14:24:16.156Z,28.97
2022-08-14T14:26:51.458Z,29.12
2022-08-14T14:29:26.734Z,29.14
2022-08-14T14:32:02.411Z,28.87
2022-08-14T14:34:37.716Z,28.60
2022-08-14T14:37:14.475Z,28.40
2022-08-14T14:40:53.667Z,28.32
2022-08-14T14:42:53.232Z,28.05
2022-08-14T14:45:26.822Z,27.96
2022-08-14T14:48:00.453Z,28.05
2022-08-14T14:50:33.345Z,28.06
2022-08-14T14:53:12.759Z,28.03
2022-08-14T14:56:08.703Z,27.98
2022-08-14T14:58:39.025Z,27.79
2022-08-14T15:01:12.266Z,27.75
2022-08-14T15:03:46.210Z,27.74
2022-08-14T15:06:19.410Z,27.81
2022-08-14T15:08:56.472Z,27.87
2022-08-14T15:11:32.184Z,27.97
2022-08-14T15:14:55.460Z,28.56
2022-08-14T15:16:59.190Z,29.20
2022-08-14T15:19:32.383Z,29.43
2022-08-14T15:22:05.088Z,29.72
2022-08-14T15:24:39.888Z,29.77
2022-08-14T15:27:12.168Z,29.73
2022-08-14T15:29:47.289Z,29.98
2022-08-14T15:32:23.158Z,30.33
2022-08-14T15:34:55.745Z,30.45
2022-08-14T15:37:33.689Z,30.60
2022-08-14T15:40:16.289Z,30.94
2022-08-14T15:42:54.679Z,30.89
2022-08-14T15:45:27.803Z,30.92
2022-08-14T15:48:00.552Z,31.11
2022-08-14T15:50:32.313Z,31.11
2022-08-14T15:53:04.564Z,31.08
2022-08-14T15:55:34.764Z,30.64
2022-08-14T15:58:11.404Z,30.61
2022-08-14T16:01:04.173Z,30.48
2022-08-14T16:03:42.290Z,30.36
2022-08-14T16:06:18.820Z,29.93
2022-08-14T16:08:58.900Z,29.81
2022-08-14T16:11:32.776Z,29.62
2022-08-14T16:14:06.901Z,29.80
2022-08-14T16:16:51.475Z,29.54
2022-08-14T16:19:32.925Z,29.41
2022-08-14T16:22:58.322Z,29.40
2022-08-14T16:25:15.578Z,29.49
2022-08-14T16:27:51.089Z,29.71
2022-08-14T16:30:27.596Z,30.06
2022-08-14T16:33:01.321Z,30.30
2022-08-14T16:35:43.409Z,30.37
2022-08-14T16:38:46.223Z,30.47
2022-08-14T16:41:30.136Z,30.89
2022-08-14T16:44:05.834Z,30.74
2022-08-14T16:46:46.496Z,30.41
2022-08-14T16:49:20.012Z,30.08
2022-08-14T16:51:52.870Z,29.89
2022-08-14T16:54:34.791Z,29.48
2022-08-14T16:57:22.480Z,29.49
2022-08-14T16:59:57.687Z,29.26
2022-08-14T17:02:41.794Z,29.11
2022-08-14T17:05:21.825Z,28.96
2022-08-14T17:08:41.735Z,29.11
2022-08-14T17:11:10.974Z,28.94
2022-08-14T17:13:57.831Z,28.78
2022-08-14T17:16:37.467Z,28.67
2022-08-14T17:19:14.212Z,28.70
2022-08-14T17:21:52.266Z,28.62
2022-08-14T17:24:57.701Z,28.64
2022-08-14T17:27:22.186Z,28.36
2022-08-14T17:29:58.798Z,28.16
2022-08-14T17:32:55.825Z,27.94
2022-08-14T17:35:57.781Z,27.84
2022-08-14T17:38:38.193Z,27.76
2022-08-14T17:41:23.519Z,27.71
2022-08-14T17:43:56.556Z,27.59
2022-08-14T17:46:43.557Z,27.59
2022-08-14T17:49:18.300Z,27.53
2022-08-14T17:52:03.774Z,27.44
2022-08-14T17:54:44.540Z,27.43
2022-08-14T17:57:18.528Z,27.39
2022-08-14T17:59:51.442Z,27.28
2022-08-14T18:02:31.440Z,27.24
2022-08-14T18:05:03.622Z,27.20
2022-08-14T18:07:59.341Z,27.11
2022-08-14T18:10:55.306Z,26.93
2022-08-14T18:13:51.033Z,26.95
2022-08-14T18:16:20.413Z,26.91
2022-08-14T18:18:54.864Z,26.84
2022-08-14T18:21:41.988Z,26.77
2022-08-14T18:24:29.716Z,26.68
2022-08-14T18:27:09.363Z,26.67
2022-08-14T18:29:55.358Z,26.67
2022-08-14T18:32:47.681Z,26.63
2022-08-14T18:35:45.887Z,26.63
2022-08-14T18:38:55.120Z,26.54
2022-08-14T18:41:37.154Z,26.45
2022-08-14T18:44:11.347Z,26.35
2022-08-14T18:47:18.433Z,26.31
2022-08-14T18:50:26.945Z,26.24
2022-08-14T18:53:10.695Z,26.22
2022-08-14T18:55:53.025Z,26.24
2022-08-14T18:58:31.346Z,26.17
2022-08-14T19:01:06.595Z,26.11
2022-08-14T19:03:56.196Z,26.04
2022-08-14T19:06:56.267Z,26.02
2022-08-14T19:09:57.978Z,25.94
2022-08-14T19:12:58.155Z,25.88
2022-08-14T19:15:34.345Z,25.84
2022-08-14T19:18:28.056Z,25.81
2022-08-14T19:21:02.478Z,25.73
2022-08-14T19:24:27.577Z,25.69
2022-08-14T19:27:19.537Z,25.66
2022-08-14T19:30:25.275Z,25.64
2022-08-14T19:33:03.734Z,25.61
2022-08-14T19:35:59.829Z,25.55
2022-08-14T19:38:54.939Z,25.57
2022-08-14T19:41:33.792Z,25.55
2022-08-14T19:44:12.052Z,25.51
2022-08-14T19:47:02.841Z,25.50
2022-08-14T19:50:09.075Z,25.43
2022-08-14T19:52:39.686Z,25.39
2022-08-14T19:55:19.396Z,25.34
2022-08-14T19:57:58.814Z,25.33
2022-08-14T20:00:31.954Z,25.27
2022-08-14T20:03:10.533Z,25.24
2022-08-14T20:05:45.501Z,25.25
2022-08-14T20:10:58.535Z,25.21
2022-08-14T20:12:02.327Z,25.23
2022-08-14T20:14:28.251Z,25.15
2022-08-14T20:17:06.064Z,25.13
2022-08-14T20:19:41.676Z,25.05
2022-08-14T20:22:36.201Z,25.05
2022-08-14T20:25:23.156Z,25.05
2022-08-14T20:27:59.243Z,24.92
2022-08-14T20:30:33.551Z,24.92
2022-08-14T20:33:11.021Z,24.88
2022-08-14T20:35:51.507Z,24.86
2022-08-14T20:38:32.421Z,24.85
2022-08-14T20:41:12.314Z,24.86
2022-08-14T20:44:06.463Z,24.83
2022-08-14T20:46:42.372Z,24.73
2022-08-14T20:49:18.861Z,24.70
2022-08-14T20:51:59.565Z,24.68
2022-08-14T20:54:36.557Z,24.62
2022-08-14T20:57:22.453Z,24.61
2022-08-14T20:59:56.642Z,24.62
2022-08-14T21:02:50.058Z,24.62
2022-08-14T21:05:33.851Z,24.55
2022-08-14T21:08:22.076Z,24.54
2022-08-14T21:10:56.745Z,24.49
2022-08-14T21:14:19.893Z,24.46
2022-08-14T21:16:33.750Z,24.36
2022-08-14T21:19:08.824Z,24.28
2022-08-14T21:21:42.438Z,24.24
2022-08-14T21:24:39.254Z,24.20
2022-08-14T21:27:12.289Z,24.12
2022-08-14T21:29:53.853Z,24.05
2022-08-14T21:32:47.057Z,24.17
2022-08-14T21:35:29.647Z,24.17
2022-08-14T21:38:02.798Z,24.07
2022-08-14T21:40:41.789Z,24.08
2022-08-14T21:43:17.792Z,24.06
2022-08-14T21:45:57.635Z,24.00
2022-08-14T21:48:34.017Z,23.92
2022-08-14T21:51:55.002Z,23.98
2022-08-14T21:54:01.344Z,23.98
2022-08-14T21:56:41.020Z,23.97
2022-08-14T21:59:32.210Z,23.88
2022-08-14T22:02:08.994Z,23.83
2022-08-14T22:05:03.528Z,23.86
2022-08-14T22:07:36.779Z,23.77
2022-08-14T22:10:14.411Z,23.80
2022-08-14T22:13:00.756Z,23.67
2022-08-14T22:15:35.535Z,23.70
2022-08-14T22:18:09.957Z,23.66
2022-08-14T22:20:56.631Z,23.61
2022-08-14T22:23:28.566Z,23.69
2022-08-14T22:26:00.360Z,23.64
2022-08-14T22:28:35.362Z,23.62
2022-08-14T22:31:11.179Z,23.67
2022-08-14T22:33:57.776Z,23.75
2022-08-14T22:36:48.797Z,23.75
2022-08-14T22:40:17.666Z,23.76
2022-08-14T22:42:20.901Z,23.60
2022-08-14T22:44:56.657Z,23.53
2022-08-14T22:47:40.205Z,23.54
2022-08-14T22:50:31.938Z,23.40
2022-08-14T22:53:07.272Z,23.42
2022-08-14T22:55:42.729Z,23.34
2022-08-14T22:58:17.275Z,23.41
2022-08-14T23:00:50.939Z,23.47
2022-08-14T23:03:22.800Z,23.50
2022-08-14T23:05:54.794Z,23.52
2022-08-14T23:08:58.573Z,23.59
2022-08-14T23:11:18.239Z,23.59
2022-08-14T23:13:50.723Z,23.60
2022-08-14T23:16:20.963Z,23.59
2022-08-14T23:18:54.637Z,23.41
2022-08-14T23:21:28.661Z,23.53
2022-08-14T23:24:03.060Z,23.53
2022-08-14T23:26:48.181Z,23.51
2022-08-14T23:29:22.357Z,23.46
2022-08-14T23:31:56.872Z,23.37
2022-08-14T23:34:30.985Z,23.29
2022-08-14T23:37:03.830Z,23.37
2022-08-14T23:39:36.524Z,23.41
2022-08-14T23:42:13.428Z,23.43
2022-08-14T23:44:49.697Z,23.33
2022-08-14T23:47:26.491Z,23.36
2022-08-14T23:50:03.651Z,23.41
2022-08-14T23:53:06.244Z,23.42
2022-08-14T23:55:34.803Z,23.33
2022-08-14T23:58:07.798Z,23.31
